createdAt,value
2022-12-12T00:01:04.671Z,2.06
2022-12-12T00:03:35.927Z,2.12
2022-12-12T00:06:27.541Z,2.19
2022-12-12T00:09:12.822Z,2.16
2022-12-12T00:11:44.596Z,2.18
2022-12-12T00:14:41.463Z,2.16
2022-12-12T00:20:08.672Z,2.06
2022-12-12T00:22:47.813Z,1.80
2022-12-12T00:25:38.662Z,1.71
2022-12-12T00:36:38.936Z,1.22
2022-12-12T00:42:27.851Z,1.19
2022-12-12T00:44:57.865Z,1.00
2022-12-12T00:47:37.228Z,1.11
2022-12-12T00:50:11.821Z,1.32
2022-12-12T00:52:44.943Z,1.59
2022-12-12T00:58:53.966Z,1.95
2022-12-12T01:04:27.840Z,2.28
2022-12-12T01:09:39.062Z,2.23
2022-12-12T01:12:15.690Z,2.11
2022-12-12T01:14:52.937Z,2.05
2022-12-12T01:17:42.871Z,2.14
2022-12-12T01:20:19.828Z,2.23
2022-12-12T01:22:50.039Z,2.27
2022-12-12T01:25:27.194Z,2.12
2022-12-12T01:28:07.304Z,2.16
2022-12-12T01:30:54.530Z,2.11
2022-12-12T01:33:23.981Z,2.00
2022-12-12T01:36:05.888Z,1.86
2022-12-12T01:38:47.105Z,1.74
2022-12-12T01:41:35.445Z,1.72
2022-12-12T01:44:08.053Z,1.76
2022-12-12T01:50:03.206Z,1.85
2022-12-12T01:52:42.862Z,1.91
2022-12-12T01:55:52.334Z,1.95
2022-12-12T02:09:58.193Z,2.46
2022-12-12T02:12:26.114Z,2.55
2022-12-12T02:14:55.245Z,2.63
2022-12-12T02:17:47.364Z,2.67
2022-12-12T02:20:33.470Z,2.71
2022-12-12T02:23:20.486Z,2.70
2022-12-12T02:26:00.741Z,2.74
2022-12-12T02:28:50.629Z,2.82
2022-12-12T02:31:24.083Z,2.88
2022-12-12T02:33:56.668Z,2.91
2022-12-12T02:36:29.150Z,2.90
2022-12-12T02:39:02.192Z,2.96
2022-12-12T02:41:35.439Z,3.07
2022-12-12T02:44:10.689Z,3.05
2022-12-12T02:46:44.249Z,2.91
2022-12-12T02:49:15.110Z,2.90
2022-12-12T02:51:43.509Z,2.92
2022-12-12T02:54:14.784Z,2.81
2022-12-12T02:56:47.870Z,2.68
2022-12-12T02:59:17.701Z,2.61
2022-12-12T03:01:51.858Z,2.64
2022-12-12T03:04:56.165Z,2.77
2022-12-12T03:07:49.647Z,2.62
2022-12-12T03:10:23.937Z,2.40
2022-12-12T03:12:58.823Z,2.36
2022-12-12T03:15:29.527Z,2.22
2022-12-12T03:18:02.723Z,2.11
2022-12-12T03:20:34.492Z,1.96
2022-12-12T03:23:05.933Z,2.02
2022-12-12T03:25:36.877Z,1.78
2022-12-12T03:28:06.623Z,1.75
2022-12-12T03:30:38.632Z,1.62
2022-12-12T03:33:13.031Z,1.59
2022-12-12T03:35:44.144Z,1.40
2022-12-12T03:38:13.875Z,1.40
2022-12-12T03:40:45.205Z,1.47
2022-12-12T03:43:15.461Z,1.54
2022-12-12T03:45:49.326Z,1.66
2022-12-12T03:48:20.932Z,1.62
2022-12-12T03:51:04.007Z,1.67
2022-12-12T03:56:49.401Z,1.86
2022-12-12T03:59:27.644Z,1.93
2022-12-12T04:02:12.351Z,2.08
2022-12-12T04:08:04.793Z,2.29
2022-12-12T04:10:54.385Z,2.29
2022-12-12T04:13:32.621Z,2.21
2022-12-12T04:19:49.070Z,2.46
2022-12-12T04:22:53.036Z,2.53
2022-12-12T04:25:48.665Z,2.43
2022-12-12T04:28:25.061Z,2.45
2022-12-12T04:31:03.481Z,2.47
2022-12-12T04:33:51.300Z,2.62
2022-12-12T04:36:34.695Z,2.49
2022-12-12T04:47:52.378Z,2.51
2022-12-12T04:50:34.019Z,2.44
2022-12-12T04:53:14.908Z,2.35
2022-12-12T04:55:50.707Z,1.87
2022-12-12T04:58:37.560Z,2.02
2022-12-12T05:01:09.872Z,2.14
2022-12-12T05:03:45.162Z,2.54
2022-12-12T05:11:55.564Z,2.74
2022-12-12T05:17:20.101Z,2.72
2022-12-12T05:26:06.593Z,2.81
2022-12-12T05:34:17.784Z,3.05
2022-12-12T05:36:45.935Z,3.11
2022-12-12T05:42:17.909Z,3.32
2022-12-12T05:47:51.226Z,3.21
2022-12-12T05:50:25.497Z,3.00
2022-12-12T05:52:54.756Z,2.66
2022-12-12T05:55:24.959Z,2.17
2022-12-12T05:58:01.074Z,2.08
2022-12-12T06:00:30.240Z,2.12
2022-12-12T06:03:21.850Z,2.03
2022-12-12T06:06:04.110Z,1.90
2022-12-12T06:08:33.575Z,1.77
2022-12-12T06:11:02.955Z,1.81
2022-12-12T06:13:34.174Z,1.74
2022-12-12T06:16:08.685Z,1.60
2022-12-12T06:18:43.042Z,1.60
2022-12-12T06:21:12.452Z,1.65
2022-12-12T06:23:41.557Z,1.76
2022-12-12T06:26:12.360Z,1.88
2022-12-12T06:28:48.784Z,1.82
2022-12-12T06:31:20.460Z,1.87
2022-12-12T06:33:53.012Z,2.03
2022-12-12T06:36:24.421Z,1.93
2022-12-12T06:38:54.421Z,1.97
2022-12-12T06:41:23.021Z,1.88
2022-12-12T06:43:52.154Z,1.82
2022-12-12T06:46:21.728Z,1.89
2022-12-12T06:48:52.198Z,1.87
2022-12-12T06:51:22.554Z,1.67
2022-12-12T06:53:52.706Z,1.62
2022-12-12T06:56:22.185Z,1.64
2022-12-12T06:58:52.137Z,1.74
2022-12-12T07:01:29.726Z,1.79
2022-12-12T07:03:59.697Z,1.84
2022-12-12T07:06:27.927Z,1.74
2022-12-12T07:09:03.534Z,1.74
2022-12-12T07:11:31.712Z,1.93
2022-12-12T07:14:06.156Z,1.93
2022-12-12T07:16:43.983Z,1.96
2022-12-12T07:19:19.524Z,1.98
2022-12-12T07:21:48.976Z,2.00
2022-12-12T07:24:24.859Z,2.09
2022-12-12T07:27:08.824Z,1.99
2022-12-12T07:29:43.415Z,2.00
2022-12-12T07:32:21.698Z,2.02
2022-12-12T07:34:59.443Z,2.05
2022-12-12T07:40:34.838Z,2.12
2022-12-12T07:43:05.373Z,2.25
2022-12-12T07:45:33.389Z,2.19
2022-12-12T07:48:02.439Z,1.96
2022-12-12T07:50:37.425Z,1.87
2022-12-12T07:53:09.094Z,1.90
2022-12-12T07:55:43.134Z,1.94
2022-12-12T07:58:23.621Z,1.89
2022-12-12T08:00:54.769Z,1.77
2022-12-12T08:03:25.185Z,1.89
2022-12-12T08:05:55.208Z,1.80
2022-12-12T08:08:23.855Z,1.69
2022-12-12T08:10:55.620Z,1.87
2022-12-12T08:13:23.637Z,2.10
2022-12-12T08:15:52.626Z,2.21
2022-12-12T08:18:20.497Z,2.41
2022-12-12T08:20:58.135Z,2.36
2022-12-12T08:23:34.094Z,2.29
2022-12-12T08:26:05.317Z,2.25
2022-12-12T08:28:33.289Z,2.28
2022-12-12T08:31:02.654Z,2.58
2022-12-12T08:33:32.612Z,2.72
2022-12-12T08:36:02.357Z,2.94
2022-12-12T08:38:32.835Z,3.04
2022-12-12T08:41:07.725Z,3.08
2022-12-12T08:43:36.157Z,2.91
2022-12-12T08:46:06.654Z,2.82
2022-12-12T08:48:36.379Z,2.60
2022-12-12T08:51:04.378Z,2.51
2022-12-12T08:53:34.512Z,2.38
2022-12-12T08:56:05.057Z,2.21
2022-12-12T08:58:34.699Z,2.11
2022-12-12T09:01:04.591Z,2.29
2022-12-12T09:03:32.817Z,2.78
2022-12-12T09:06:00.747Z,3.37
2022-12-12T09:08:28.833Z,3.96
2022-12-12T09:11:04.130Z,4.47
2022-12-12T09:13:32.104Z,4.27
2022-12-12T09:16:00.322Z,4.02
2022-12-12T09:18:28.314Z,3.94
2022-12-12T09:20:59.125Z,4.47
2022-12-12T09:23:27.947Z,5.29
2022-12-12T09:25:56.666Z,6.04
2022-12-12T09:28:29.116Z,5.93
2022-12-12T09:31:00.098Z,5.61
2022-12-12T09:33:29.136Z,5.44
2022-12-12T09:36:02.805Z,5.32
2022-12-12T09:38:32.657Z,5.90
2022-12-12T09:41:05.976Z,6.50
2022-12-12T09:43:45.278Z,5.89
2022-12-12T09:46:20.809Z,5.25
2022-12-12T09:48:52.828Z,4.99
2022-12-12T09:51:24.342Z,5.00
2022-12-12T09:54:19.175Z,5.46
2022-12-12T09:56:53.011Z,5.62
2022-12-12T09:59:28.485Z,5.16
2022-12-12T10:02:11.814Z,5.37
2022-12-12T10:04:45.255Z,5.63
2022-12-12T10:07:27.467Z,6.77
2022-12-12T10:10:03.563Z,7.00
2022-12-12T10:12:33.707Z,6.35
2022-12-12T10:15:11.369Z,6.02
2022-12-12T10:17:54.267Z,6.05
2022-12-12T10:20:27.131Z,6.45
2022-12-12T10:23:00.925Z,6.37
2022-12-12T10:34:29.869Z,6.53
2022-12-12T10:40:14.686Z,6.82
2022-12-12T10:46:07.116Z,7.31
2022-12-12T10:48:41.748Z,6.99
2022-12-12T10:51:29.342Z,6.66
2022-12-12T10:54:08.190Z,6.46
2022-12-12T10:57:01.390Z,7.28
2022-12-12T10:59:43.386Z,7.57
2022-12-12T11:02:26.056Z,7.89
2022-12-12T11:10:40.892Z,9.32
2022-12-12T11:13:16.126Z,10.91
2022-12-12T11:18:43.173Z,11.01
2022-12-12T11:21:16.303Z,12.54
2022-12-12T11:27:21.138Z,10.40
2022-12-12T11:29:57.230Z,9.37
2022-12-12T11:32:48.365Z,9.37
2022-12-12T11:38:09.554Z,8.93
2022-12-12T11:40:38.824Z,8.99
2022-12-12T11:43:46.104Z,8.57
2022-12-12T11:46:24.345Z,7.96
2022-12-12T11:49:06.993Z,7.66
2022-12-12T11:51:39.238Z,8.37
2022-12-12T11:54:16.901Z,9.56
2022-12-12T11:56:53.215Z,11.83
2022-12-12T11:59:40.754Z,13.65
2022-12-12T12:06:04.102Z,11.63
2022-12-12T12:11:35.724Z,9.65
2022-12-12T12:14:17.479Z,9.90
2022-12-12T12:16:51.262Z,10.15
2022-12-12T12:19:32.111Z,10.56
2022-12-12T12:22:11.195Z,10.37
2022-12-12T12:24:53.379Z,8.59
2022-12-12T12:27:28.852Z,8.19
2022-12-12T12:30:18.243Z,8.81
2022-12-12T12:32:55.444Z,8.06
2022-12-12T12:35:29.369Z,7.61
2022-12-12T12:38:07.177Z,7.25
2022-12-12T12:43:35.274Z,5.88
2022-12-12T12:46:09.329Z,4.97
2022-12-12T12:48:39.730Z,4.51
2022-12-12T12:51:15.128Z,5.03
2022-12-12T12:53:57.812Z,5.91
2022-12-12T12:56:28.701Z,5.50
2022-12-12T12:59:06.022Z,5.54
2022-12-12T13:01:39.649Z,6.13
2022-12-12T13:04:16.687Z,6.72
2022-12-12T13:06:52.892Z,7.67
2022-12-12T13:09:28.858Z,8.10
2022-12-12T13:12:03.878Z,8.65
2022-12-12T13:14:47.275Z,9.27
2022-12-12T13:17:19.082Z,9.41
2022-12-12T13:19:54.169Z,8.80
2022-12-12T13:22:30.371Z,7.42
2022-12-12T13:25:05.238Z,7.55
2022-12-12T13:27:40.158Z,6.56
2022-12-12T13:30:16.282Z,6.60
2022-12-12T13:33:01.713Z,7.05
2022-12-12T13:35:40.672Z,6.55
2022-12-12T13:38:31.475Z,6.45
2022-12-12T13:41:09.640Z,5.83
2022-12-12T13:43:43.906Z,5.78
2022-12-12T13:46:31.015Z,6.06
2022-12-12T13:49:00.617Z,6.16
2022-12-12T13:51:36.583Z,6.00
2022-12-12T13:54:21.986Z,5.77
2022-12-12T13:57:08.573Z,5.81
2022-12-12T14:00:08.036Z,5.55
2022-12-12T14:02:44.416Z,5.20
2022-12-12T14:05:19.968Z,4.70
2022-12-12T14:07:59.254Z,4.50
2022-12-12T14:10:33.413Z,4.36
2022-12-12T14:13:34.354Z,4.28
2022-12-12T14:16:14.144Z,4.49
2022-12-12T14:19:03.799Z,4.40
2022-12-12T14:21:53.740Z,4.41
2022-12-12T14:27:48.462Z,4.45
2022-12-12T14:30:18.943Z,4.37
2022-12-12T14:32:58.140Z,4.21
2022-12-12T14:35:41.229Z,3.98
2022-12-12T14:38:20.721Z,3.01
2022-12-12T14:40:55.935Z,2.82
2022-12-12T14:43:28.873Z,2.59
2022-12-12T14:45:58.390Z,2.03
2022-12-12T14:48:31.468Z,2.12
2022-12-12T14:51:09.833Z,2.41
2022-12-12T14:54:01.551Z,2.34
2022-12-12T14:56:31.975Z,1.70
2022-12-12T14:59:07.991Z,1.76
2022-12-12T15:01:37.516Z,1.91
2022-12-12T15:04:27.269Z,1.88
2022-12-12T15:06:57.036Z,1.55
2022-12-12T15:12:15.746Z,1.06
2022-12-12T15:15:08.106Z,0.97
2022-12-12T15:17:39.294Z,0.91
2022-12-12T15:20:17.372Z,1.12
2022-12-12T15:22:55.234Z,1.40
2022-12-12T15:25:24.927Z,1.48
2022-12-12T15:27:59.477Z,1.81
2022-12-12T15:30:32.240Z,1.96
2022-12-12T15:33:01.242Z,2.25
2022-12-12T15:35:33.333Z,2.56
2022-12-12T15:38:03.929Z,2.82
2022-12-12T15:40:33.850Z,3.01
2022-12-12T15:43:03.998Z,3.11
2022-12-12T15:45:37.915Z,3.26
2022-12-12T15:48:07.640Z,3.29
2022-12-12T15:50:58.907Z,3.35
2022-12-12T15:53:31.683Z,3.40
2022-12-12T15:56:01.993Z,3.57
2022-12-12T15:58:31.660Z,3.62
2022-12-12T16:01:07.659Z,3.73
2022-12-12T16:03:37.672Z,3.72
2022-12-12T16:06:18.368Z,3.77
2022-12-12T16:08:51.857Z,3.83
2022-12-12T16:11:38.116Z,3.92
2022-12-12T16:14:23.738Z,3.95
2022-12-12T16:16:57.617Z,3.96
2022-12-12T16:19:44.522Z,3.85
2022-12-12T16:22:43.551Z,3.60
2022-12-12T16:25:27.530Z,2.98
2022-12-12T16:28:28.264Z,2.87
2022-12-12T16:31:03.713Z,2.40
2022-12-12T16:33:35.496Z,2.04
2022-12-12T16:36:07.548Z,1.77
2022-12-12T16:38:41.514Z,1.54
2022-12-12T16:41:12.652Z,1.33
2022-12-12T16:43:42.803Z,1.08
2022-12-12T16:46:15.858Z,0.95
2022-12-12T16:48:45.645Z,0.83
2022-12-12T16:51:17.200Z,0.64
2022-12-12T16:53:59.775Z,0.48
2022-12-12T16:56:28.772Z,0.35
2022-12-12T17:01:47.459Z,0.18
2022-12-12T17:07:15.927Z,0.08
2022-12-12T17:25:44.946Z,-0.11
2022-12-12T17:28:15.083Z,-0.17
2022-12-12T17:30:43.013Z,-0.23
2022-12-12T17:33:17.607Z,-0.19
2022-12-12T17:35:48.018Z,-0.20
2022-12-12T17:38:16.595Z,-0.26
2022-12-12T17:40:47.436Z,-0.42
2022-12-12T17:43:15.381Z,-0.48
2022-12-12T17:45:44.575Z,-0.56
2022-12-12T17:48:12.790Z,-0.60
2022-12-12T17:50:41.892Z,-0.83
2022-12-12T17:53:10.976Z,-0.88
2022-12-12T17:55:54.169Z,-0.99
2022-12-12T17:58:29.763Z,-1.02
2022-12-12T18:00:57.852Z,-0.91
2022-12-12T18:03:25.921Z,-0.87
2022-12-12T18:05:54.007Z,-0.83
2022-12-12T18:08:24.715Z,-0.77
2022-12-12T18:10:52.414Z,-0.74
2022-12-12T18:13:27.694Z,-0.76
2022-12-12T18:15:57.990Z,-0.79
2022-12-12T18:18:27.189Z,-0.91
2022-12-12T18:20:55.263Z,-0.93
2022-12-12T18:23:25.564Z,-1.27
2022-12-12T18:25:54.859Z,-1.32
2022-12-12T18:28:22.896Z,-1.18
2022-12-12T18:30:51.619Z,-1.19
2022-12-12T18:33:20.956Z,-1.07
2022-12-12T18:35:49.280Z,-1.01
2022-12-12T18:38:19.186Z,-0.94
2022-12-12T18:40:48.310Z,-0.91
2022-12-12T18:43:17.505Z,-1.07
2022-12-12T18:45:46.202Z,-1.12
2022-12-12T18:48:14.359Z,-1.18
2022-12-12T18:50:44.140Z,-1.26
2022-12-12T18:53:12.225Z,-1.32
2022-12-12T18:55:41.417Z,-1.34
2022-12-12T18:58:09.640Z,-1.45
2022-12-12T19:00:40.158Z,-1.64
2022-12-12T19:03:08.064Z,-1.71
2022-12-12T19:05:40.682Z,-1.67
2022-12-12T19:08:09.999Z,-1.60
2022-12-12T19:10:37.994Z,-1.55
2022-12-12T19:13:05.910Z,-1.71
2022-12-12T19:15:35.527Z,-1.79
2022-12-12T19:18:04.334Z,-1.67
2022-12-12T19:20:32.026Z,-1.75
2022-12-12T19:22:59.773Z,-1.73
2022-12-12T19:25:29.139Z,-1.67
2022-12-12T19:27:57.209Z,-1.70
2022-12-12T19:30:28.081Z,-1.72
2022-12-12T19:41:40.340Z,-1.99
2022-12-12T19:44:12.367Z,-2.07
2022-12-12T19:46:42.030Z,-2.11
2022-12-12T19:49:12.330Z,-2.08
2022-12-12T19:51:41.896Z,-2.16
2022-12-12T19:54:10.758Z,-2.14
2022-12-12T19:56:42.432Z,-2.23
2022-12-12T19:59:12.701Z,-2.32
2022-12-12T20:01:42.930Z,-2.30
2022-12-12T20:04:14.612Z,-2.25
2022-12-12T20:06:45.654Z,-2.21
2022-12-12T20:09:14.424Z,-2.23
2022-12-12T20:11:45.283Z,-2.15
2022-12-12T20:14:13.858Z,-2.13
2022-12-12T20:16:41.640Z,-2.15
2022-12-12T20:19:09.541Z,-2.16
2022-12-12T20:24:27.206Z,-2.14
2022-12-12T20:26:57.063Z,-2.32
2022-12-12T20:29:25.002Z,-2.31
2022-12-12T20:31:53.312Z,-2.46
2022-12-12T20:34:25.185Z,-2.44
2022-12-12T20:39:43.460Z,-2.50
2022-12-12T20:42:14.447Z,-2.50
2022-12-12T20:44:45.280Z,-2.57
2022-12-12T20:47:17.257Z,-2.61
2022-12-12T20:49:45.688Z,-2.51
2022-12-12T20:52:14.352Z,-2.59
2022-12-12T20:54:42.304Z,-2.67
2022-12-12T20:57:12.867Z,-2.74
2022-12-12T20:59:42.259Z,-2.88
2022-12-12T21:02:11.420Z,-2.94
2022-12-12T21:20:42.801Z,-2.79
2022-12-12T21:38:25.355Z,-4.00
2022-12-12T21:44:06.017Z,-4.39
2022-12-12T21:49:40.269Z,-4.19
2022-12-12T21:52:16.193Z,-4.29
2022-12-12T21:57:46.933Z,-3.74
2022-12-12T22:00:25.742Z,-3.39
2022-12-12T22:21:48.622Z,-3.85
2022-12-12T22:43:22.764Z,-4.09
2022-12-12T22:46:25.028Z,-3.98
2022-12-12T22:57:22.537Z,-3.44
2022-12-12T23:00:03.451Z,-3.43
2022-12-12T23:02:35.291Z,-3.47
2022-12-12T23:05:14.273Z,-3.81
2022-12-12T23:07:45.234Z,-3.91
2022-12-12T23:12:56.200Z,-4.06
2022-12-12T23:19:23.630Z,-3.71
2022-12-12T23:28:02.381Z,-3.74
2022-12-12T23:31:14.246Z,-3.95
2022-12-12T23:33:46.061Z,-4.09
2022-12-12T23:36:26.981Z,-4.28
2022-12-12T23:39:01.280Z,-4.45
2022-12-12T23:41:33.667Z,-4.28
2022-12-12T23:44:26.918Z,-4.21
2022-12-12T23:49:44.339Z,-3.81
2022-12-12T23:52:27.396Z,-3.91
2022-12-12T23:57:44.514Z,-3.85
